createdAt,value
2018-03-27T00:00:09.249Z,5.4
2018-03-27T00:03:09.157Z,5.5
2018-03-27T00:06:09.179Z,5.5
2018-03-27T00:09:09.174Z,5.5
2018-03-27T00:12:09.195Z,5.6
2018-03-27T00:15:09.142Z,5.7
2018-03-27T00:18:09.339Z,5.8
2018-03-27T00:21:09.262Z,5.9
2018-03-27T00:24:09.259Z,5.6
2018-03-27T00:27:09.257Z,5.5
2018-03-27T00:30:09.236Z,5.5
2018-03-27T00:33:09.238Z,5.5
2018-03-27T00:36:09.212Z,5.5
2018-03-27T00:39:09.221Z,5.5
2018-03-27T00:42:09.248Z,5.4
2018-03-27T00:45:09.293Z,5.5
2018-03-27T00:48:09.314Z,5.5
2018-03-27T00:51:09.246Z,5.6
2018-03-27T00:54:09.233Z,5.5
2018-03-27T00:57:09.207Z,5.6
2018-03-27T01:00:09.251Z,5.7
2018-03-27T01:03:09.271Z,5.6
2018-03-27T01:06:09.209Z,5.6
2018-03-27T01:09:09.254Z,5.6
2018-03-27T01:12:09.208Z,5.6
2018-03-27T01:15:09.253Z,5.7
2018-03-27T01:18:09.339Z,5.7
2018-03-27T01:21:09.245Z,5.5
2018-03-27T01:24:09.255Z,5.5
2018-03-27T01:27:09.287Z,5.4
2018-03-27T01:30:09.210Z,5.4
2018-03-27T01:33:09.200Z,5.5
2018-03-27T01:36:09.206Z,5.5
2018-03-27T01:39:09.334Z,5.4
2018-03-27T01:42:09.223Z,5.5
2018-03-27T01:45:09.223Z,5.5
2018-03-27T01:48:09.250Z,5.7
2018-03-27T01:51:09.208Z,5.7
2018-03-27T01:54:09.220Z,5.6
2018-03-27T01:57:09.208Z,5.6
2018-03-27T02:00:09.249Z,5.7
2018-03-27T02:03:09.224Z,5.6
2018-03-27T02:06:09.204Z,5.5
2018-03-27T02:09:09.287Z,5.4
2018-03-27T02:12:09.233Z,5.5
2018-03-27T02:15:09.194Z,5.5
2018-03-27T02:18:09.211Z,5.6
2018-03-27T02:21:09.197Z,5.4
2018-03-27T02:24:09.222Z,5.5
2018-03-27T02:27:09.201Z,5.6
2018-03-27T02:30:09.264Z,5.6
2018-03-27T02:33:09.211Z,5.5
2018-03-27T02:36:09.298Z,5.7
2018-03-27T02:39:09.261Z,5.6
2018-03-27T02:42:09.207Z,5.5
2018-03-27T02:45:09.246Z,5.4
2018-03-27T02:48:09.234Z,5.4
2018-03-27T02:51:09.202Z,5.4
2018-03-27T02:54:09.209Z,5.5
2018-03-27T02:57:09.210Z,5.5
2018-03-27T03:00:09.252Z,5.6
2018-03-27T03:03:09.236Z,5.5
2018-03-27T03:06:09.217Z,5.5
2018-03-27T03:09:09.225Z,5.4
2018-03-27T03:12:09.184Z,5.6
2018-03-27T03:15:09.174Z,5.6
2018-03-27T03:18:09.289Z,5.5
2018-03-27T03:21:09.205Z,5.6
2018-03-27T03:24:09.169Z,5.5
2018-03-27T03:27:09.200Z,5.5
2018-03-27T03:30:09.548Z,5.5
2018-03-27T03:33:09.177Z,5.5
2018-03-27T03:36:09.176Z,5.4
2018-03-27T03:39:09.179Z,5.4
2018-03-27T03:42:09.181Z,5.3
2018-03-27T03:45:09.209Z,5.5
2018-03-27T03:48:09.183Z,5.5
2018-03-27T03:51:09.176Z,5.3
2018-03-27T03:54:09.174Z,5.6
2018-03-27T03:57:09.160Z,5.6
2018-03-27T04:00:09.186Z,5.4
2018-03-27T04:03:09.176Z,5.1
2018-03-27T04:06:09.148Z,5.1
2018-03-27T04:09:09.220Z,5.2
2018-03-27T04:12:09.152Z,4.9
2018-03-27T04:15:09.231Z,4.9
2018-03-27T04:18:09.179Z,5.2
2018-03-27T04:21:09.224Z,5
2018-03-27T04:24:09.168Z,4.9
2018-03-27T04:27:09.192Z,4.9
2018-03-27T04:30:09.208Z,4.8
2018-03-27T04:33:09.176Z,4.8
2018-03-27T04:36:09.136Z,4.8
2018-03-27T04:39:09.136Z,4.7
2018-03-27T04:42:09.205Z,4.8
2018-03-27T04:45:09.156Z,4.7
2018-03-27T04:48:09.242Z,4.8
2018-03-27T04:51:09.148Z,4.9
2018-03-27T04:54:09.149Z,4.8
2018-03-27T04:57:09.135Z,4.9
2018-03-27T05:00:09.147Z,4.9
2018-03-27T05:03:09.146Z,4.8
2018-03-27T05:06:09.155Z,4.8
2018-03-27T05:09:09.199Z,4.7
2018-03-27T05:12:09.127Z,4.8
2018-03-27T05:15:09.188Z,5
2018-03-27T05:18:09.142Z,4.9
2018-03-27T05:21:09.175Z,4.7
2018-03-27T05:24:09.198Z,4.7
2018-03-27T05:27:09.149Z,4.6
2018-03-27T05:30:09.155Z,4.6
2018-03-27T05:33:09.150Z,4.7
2018-03-27T05:36:09.127Z,4.7
2018-03-27T05:39:09.173Z,5.3
2018-03-27T05:42:09.224Z,5.4
2018-03-27T05:45:09.191Z,6.9
2018-03-27T05:48:09.185Z,7.9
2018-03-27T05:51:09.208Z,9
2018-03-27T05:54:09.130Z,10.9
2018-03-27T05:57:09.133Z,10.8
2018-03-27T06:00:09.106Z,10.4
2018-03-27T06:03:09.143Z,9.1
2018-03-27T06:06:09.128Z,10.3
2018-03-27T06:09:09.139Z,8.8
2018-03-27T06:12:09.116Z,8.2
2018-03-27T06:15:09.136Z,7.2
2018-03-27T06:18:09.134Z,7.5
2018-03-27T06:21:09.149Z,7
2018-03-27T06:24:09.125Z,6.5
2018-03-27T06:27:09.130Z,6.3
2018-03-27T06:30:09.122Z,6.2
2018-03-27T06:33:09.134Z,5.8
2018-03-27T06:36:09.116Z,6.2
2018-03-27T06:39:09.109Z,6
2018-03-27T06:42:10.257Z,5.8
2018-03-27T06:45:10.162Z,5.7
2018-03-27T06:48:09.169Z,5.9
2018-03-27T06:51:09.148Z,6
2018-03-27T06:54:09.132Z,5.5
2018-03-27T06:57:09.136Z,5.4
2018-03-27T07:00:09.147Z,5.4
2018-03-27T07:03:09.251Z,5.4
2018-03-27T07:06:09.312Z,5.2
2018-03-27T07:09:09.258Z,5.2
2018-03-27T07:12:09.258Z,5.2
2018-03-27T07:15:09.336Z,5.1
2018-03-27T07:18:09.417Z,5.3
2018-03-27T07:21:09.189Z,5.1
2018-03-27T07:24:09.122Z,5
2018-03-27T07:27:09.108Z,4.8
2018-03-27T07:30:09.169Z,4.9
2018-03-27T07:33:09.164Z,5.9
2018-03-27T07:36:09.096Z,5.8
2018-03-27T07:39:09.172Z,5.8
2018-03-27T07:42:09.110Z,5.3
2018-03-27T07:45:09.125Z,5.1
2018-03-27T07:48:09.090Z,5
2018-03-27T07:51:09.094Z,6.2
2018-03-27T07:54:09.099Z,5.5
2018-03-27T07:57:09.104Z,5.7
2018-03-27T08:00:09.088Z,5.3
2018-03-27T08:03:09.102Z,5.2
2018-03-27T08:06:09.145Z,4.7
2018-03-27T08:09:09.095Z,4.9
2018-03-27T08:12:09.152Z,4.6
2018-03-27T08:15:09.110Z,4.5
2018-03-27T08:18:09.124Z,5.7
2018-03-27T08:21:09.130Z,5.7
2018-03-27T08:24:11.023Z,5.6
2018-03-27T08:27:09.113Z,6.3
2018-03-27T08:30:09.085Z,6.1
2018-03-27T08:33:09.136Z,7.1
2018-03-27T08:36:09.072Z,6.7
2018-03-27T08:39:09.416Z,6.8
2018-03-27T08:42:09.979Z,6.5
2018-03-27T08:45:09.079Z,6.2
2018-03-27T08:48:09.188Z,5.9
2018-03-27T08:51:09.071Z,6.1
2018-03-27T08:54:09.506Z,6.8
2018-03-27T08:57:09.078Z,7.9
2018-03-27T09:00:09.085Z,7.3
2018-03-27T09:03:09.078Z,6.8
2018-03-27T09:06:09.052Z,6.8
2018-03-27T09:09:09.251Z,7
2018-03-27T09:12:09.902Z,5.6
2018-03-27T09:15:09.506Z,5.3
2018-03-27T09:18:09.067Z,5
2018-03-27T09:21:09.183Z,4.7
2018-03-27T09:24:09.114Z,5.1
2018-03-27T09:27:09.064Z,4.5
2018-03-27T09:30:09.050Z,4.8
2018-03-27T09:33:09.091Z,4.6
2018-03-27T09:36:09.071Z,5
2018-03-27T09:39:09.275Z,4.6
2018-03-27T09:42:09.125Z,4.5
2018-03-27T09:45:09.060Z,4.4
2018-03-27T09:48:09.307Z,4.9
2018-03-27T09:51:09.094Z,5.5
2018-03-27T09:54:09.124Z,5
2018-03-27T09:57:09.067Z,4.6
2018-03-27T10:00:09.072Z,4.3
2018-03-27T10:03:09.074Z,4.2
2018-03-27T10:06:09.077Z,4.9
2018-03-27T10:09:09.093Z,5
2018-03-27T10:12:09.095Z,4.6
2018-03-27T10:15:09.043Z,4.5
2018-03-27T10:18:09.059Z,5.1
2018-03-27T10:21:09.067Z,5.9
2018-03-27T10:24:09.077Z,5.9
2018-03-27T10:27:09.095Z,5.9
2018-03-27T10:30:09.037Z,5
2018-03-27T10:33:09.138Z,4.6
2018-03-27T10:36:09.055Z,4.4
2018-03-27T10:39:09.063Z,4.2
2018-03-27T10:42:09.076Z,4.6
2018-03-27T10:45:09.052Z,4.9
2018-03-27T10:48:09.030Z,7.1
2018-03-27T10:51:09.077Z,8.5
2018-03-27T10:55:42.024Z,7.4
2018-03-27T10:58:41.436Z,8
2018-03-27T11:01:41.423Z,6.8
2018-03-27T11:04:41.541Z,6.7
2018-03-27T11:07:41.489Z,6.9
2018-03-27T11:10:41.472Z,7.8
2018-03-27T11:13:41.682Z,7.2
2018-03-27T11:16:41.528Z,6.9
2018-03-27T11:32:13.424Z,4.5
2018-03-27T11:35:13.378Z,5.3
2018-03-27T11:38:13.363Z,6.2
2018-03-27T11:41:13.360Z,5.5
2018-03-27T11:44:13.403Z,5.7
2018-03-27T11:47:13.354Z,5.4
2018-03-27T11:50:13.365Z,5.3
2018-03-27T11:53:13.346Z,4.8
2018-03-27T11:56:13.383Z,4.5
2018-03-27T11:59:13.422Z,4.5
2018-03-27T12:02:13.366Z,5.2
2018-03-27T12:05:13.628Z,4.6
2018-03-27T12:08:13.356Z,4.5
2018-03-27T12:11:13.378Z,4.3
2018-03-27T12:14:13.368Z,4
2018-03-27T12:17:13.334Z,3.8
2018-03-27T12:20:13.386Z,4.8
2018-03-27T12:23:13.333Z,4.4
2018-03-27T12:26:13.368Z,4.4
2018-03-27T12:29:13.360Z,4.7
2018-03-27T12:32:13.376Z,5.3
2018-03-27T12:35:13.315Z,4.6
2018-03-27T12:38:13.367Z,4.7
2018-03-27T12:41:13.329Z,4.8
2018-03-27T12:44:13.347Z,4.7
2018-03-27T12:47:13.341Z,4.6
2018-03-27T12:50:13.350Z,4
2018-03-27T12:53:13.890Z,4.7
2018-03-27T12:56:13.399Z,4.1
2018-03-27T12:59:13.384Z,4.7
2018-03-27T13:02:13.345Z,3.9
2018-03-27T13:05:13.354Z,3.5
2018-03-27T13:08:13.368Z,3.6
2018-03-27T13:11:13.528Z,3.3
2018-03-27T13:14:13.411Z,3.5
2018-03-27T13:17:13.304Z,3.2
2018-03-27T13:20:13.340Z,3.1
2018-03-27T13:23:13.308Z,3.5
2018-03-27T13:26:13.307Z,3.3
2018-03-27T13:29:13.330Z,3.2
2018-03-27T13:32:14.357Z,3.1
2018-03-27T13:35:13.350Z,3
2018-03-27T13:38:13.344Z,3
2018-03-27T13:41:13.423Z,3.3
2018-03-27T13:44:13.309Z,3.2
2018-03-27T13:47:13.360Z,3.5
2018-03-27T13:50:13.348Z,3.8
2018-03-27T13:53:13.314Z,3.3
2018-03-27T13:56:13.298Z,3
2018-03-27T13:59:13.288Z,2.9
2018-03-27T14:02:13.323Z,2.8
2018-03-27T14:05:13.414Z,3
2018-03-27T14:08:13.516Z,3.3
2018-03-27T14:11:13.556Z,3.6
2018-03-27T14:14:13.312Z,3.4
2018-03-27T14:17:13.326Z,3
2018-03-27T14:20:13.300Z,3
2018-03-27T14:23:13.288Z,2.9
2018-03-27T14:26:13.318Z,3.1
2018-03-27T14:29:13.304Z,3.1
2018-03-27T14:32:13.399Z,3
2018-03-27T14:35:13.344Z,2.8
2018-03-27T14:38:13.883Z,2.7
2018-03-27T14:41:13.312Z,3.4
2018-03-27T14:44:13.267Z,3.1
2018-03-27T14:47:13.296Z,2.9
2018-03-27T14:50:13.327Z,2.7
2018-03-27T14:53:13.296Z,2.6
2018-03-27T14:56:13.288Z,2.7
2018-03-27T14:59:13.284Z,2.7
2018-03-27T15:02:13.281Z,2.6
2018-03-27T15:05:13.332Z,2.8
2018-03-27T15:08:13.331Z,2.6
2018-03-27T15:11:13.272Z,2.6
2018-03-27T15:14:13.262Z,2.7
2018-03-27T15:17:13.289Z,2.6
2018-03-27T15:20:13.289Z,2.5
2018-03-27T15:23:13.261Z,2.6
2018-03-27T15:26:13.302Z,2.5
2018-03-27T15:29:13.249Z,2.5
2018-03-27T15:32:13.318Z,2.5
2018-03-27T15:35:13.307Z,2.5
2018-03-27T15:38:13.344Z,2.5
2018-03-27T15:41:13.280Z,2.4
2018-03-27T15:44:13.318Z,2.9
2018-03-27T15:47:13.285Z,5.8
2018-03-27T15:50:13.339Z,9.8
2018-03-27T15:53:13.264Z,11.4
2018-03-27T15:56:13.330Z,12.6
2018-03-27T15:59:13.241Z,13
2018-03-27T16:02:13.316Z,13.2
2018-03-27T16:05:13.314Z,13.4
2018-03-27T16:08:13.311Z,12.2
2018-03-27T16:11:13.268Z,10.8
2018-03-27T16:14:13.262Z,9.9
2018-03-27T16:17:13.288Z,9.4
2018-03-27T16:20:13.266Z,9.3
2018-03-27T16:23:13.269Z,10.4
2018-03-27T16:26:13.261Z,8.3
2018-03-27T16:29:13.248Z,7.4
2018-03-27T16:32:13.282Z,7.6
2018-03-27T16:35:13.297Z,7.2
2018-03-27T16:38:13.328Z,6.6
2018-03-27T16:41:13.275Z,6.4
2018-03-27T16:44:13.345Z,5.9
2018-03-27T16:47:13.268Z,5.5
2018-03-27T16:50:13.345Z,5.1
2018-03-27T16:53:13.320Z,6
2018-03-27T16:56:13.261Z,5.6
2018-03-27T16:59:13.324Z,5.2
2018-03-27T17:02:13.309Z,4.4
2018-03-27T17:05:13.277Z,4.3
2018-03-27T17:08:13.287Z,4.2
2018-03-27T17:11:13.274Z,4.3
2018-03-27T17:14:13.453Z,4.4
2018-03-27T17:17:13.293Z,4.4
2018-03-27T17:20:13.274Z,4.3
2018-03-27T17:23:13.398Z,4.2
2018-03-27T17:26:13.390Z,4.4
2018-03-27T17:29:13.273Z,4.6
2018-03-27T17:32:13.273Z,4.3
2018-03-27T17:35:13.245Z,4.1
2018-03-27T17:38:13.300Z,3.6
2018-03-27T17:41:13.273Z,3.3
2018-03-27T17:44:13.290Z,3.8
2018-03-27T17:47:13.318Z,3.4
2018-03-27T17:50:13.284Z,3.5
2018-03-27T17:53:13.268Z,3.9
2018-03-27T17:56:13.260Z,3.6
2018-03-27T17:59:13.254Z,3.4
2018-03-27T18:02:13.250Z,3.2
2018-03-27T18:05:13.270Z,3.6
2018-03-27T18:08:13.262Z,3.2
2018-03-27T18:11:13.289Z,3
2018-03-27T18:14:13.263Z,2.9
2018-03-27T18:17:13.283Z,2.9
2018-03-27T18:20:13.247Z,5.1
2018-03-27T18:23:13.269Z,4.5
2018-03-27T18:26:13.257Z,4.6
2018-03-27T18:29:13.319Z,4.3
2018-03-27T18:32:13.252Z,3.5
2018-03-27T18:35:13.273Z,3.4
2018-03-27T18:38:13.237Z,3.9
2018-03-27T18:41:13.321Z,3.9
2018-03-27T18:44:13.243Z,4.1
2018-03-27T18:47:13.300Z,5
2018-03-27T18:50:13.231Z,7.4
2018-03-27T18:53:13.238Z,7.4
2018-03-27T18:56:13.260Z,6.5
2018-03-27T18:59:13.268Z,6.2
2018-03-27T19:02:13.249Z,5.9
2018-03-27T19:05:13.238Z,6.1
2018-03-27T19:08:13.227Z,5.6
2018-03-27T19:11:13.313Z,4.8
2018-03-27T19:14:13.391Z,5.4
2018-03-27T19:17:13.245Z,4.5
2018-03-27T19:20:13.246Z,3.8
2018-03-27T19:23:14.602Z,4
2018-03-27T19:26:13.436Z,5.4
2018-03-27T19:29:13.208Z,6.6
2018-03-27T19:32:13.216Z,5.8
2018-03-27T19:35:13.404Z,7
2018-03-27T19:38:13.487Z,6
2018-03-27T19:41:13.803Z,5.2
2018-03-27T19:44:13.236Z,5.8
2018-03-27T19:47:13.269Z,6
2018-03-27T19:50:13.324Z,5
2018-03-27T19:53:13.218Z,5.3
2018-03-27T19:56:13.221Z,4.7
2018-03-27T19:59:13.245Z,4.7
2018-03-27T20:02:13.330Z,5.1
2018-03-27T20:05:13.261Z,5.6
2018-03-27T20:10:46.034Z,9.5
2018-03-27T20:13:45.979Z,7.8
2018-03-27T20:16:45.995Z,6.6
2018-03-27T20:19:45.994Z,5.5
2018-03-27T20:22:45.980Z,5.8
2018-03-27T20:25:45.998Z,5.1
2018-03-27T20:28:46.040Z,5.1
2018-03-27T20:31:45.994Z,5.1
2018-03-27T20:34:46.024Z,6.2
2018-03-27T20:37:45.982Z,5.4
2018-03-27T20:40:46.003Z,4.5
2018-03-27T20:43:46.006Z,4.6
2018-03-27T20:46:45.968Z,4.1
2018-03-27T20:49:45.980Z,4.2
2018-03-27T20:52:46.011Z,4.3
2018-03-27T20:55:46.008Z,4
2018-03-27T20:58:45.964Z,4.3
2018-03-27T21:01:45.968Z,3.9
2018-03-27T21:04:45.979Z,4
2018-03-27T21:07:46.105Z,3.7
2018-03-27T21:10:45.949Z,4.1
2018-03-27T21:13:45.992Z,3.8
2018-03-27T21:16:46.055Z,3.9
2018-03-27T21:19:45.965Z,3.7
2018-03-27T21:22:45.957Z,3.6
2018-03-27T21:25:46.055Z,3.6
2018-03-27T21:28:45.979Z,4
2018-03-27T21:31:46.095Z,3.8
2018-03-27T21:34:45.987Z,4
2018-03-27T21:37:45.977Z,3.7
2018-03-27T21:40:45.959Z,3.5
2018-03-27T21:43:45.954Z,3.6
2018-03-27T21:46:45.992Z,5
2018-03-27T21:49:46.051Z,4.4
2018-03-27T21:52:46.032Z,3.9
2018-03-27T21:55:45.974Z,4.5
2018-03-27T21:58:45.939Z,4.1
2018-03-27T22:01:45.950Z,4.3
2018-03-27T22:04:45.956Z,4
2018-03-27T22:07:45.948Z,4.2
2018-03-27T22:10:46.022Z,3.6
2018-03-27T22:13:46.062Z,3.5
2018-03-27T22:16:46.015Z,3.4
2018-03-27T22:19:45.968Z,3.4
2018-03-27T22:22:45.962Z,3.6
2018-03-27T22:25:45.939Z,3.3
2018-03-27T22:28:45.960Z,3.4
2018-03-27T22:31:45.938Z,3.1
2018-03-27T22:34:45.975Z,3.1
2018-03-27T22:37:45.955Z,3.1
2018-03-27T22:40:45.939Z,3.1
2018-03-27T22:43:46.011Z,3
2018-03-27T22:46:45.952Z,3.4
2018-03-27T22:49:45.923Z,3.2
2018-03-27T22:52:45.946Z,3.1
2018-03-27T22:55:45.945Z,3.5
2018-03-27T22:58:45.947Z,3.2
2018-03-27T23:01:45.942Z,3.6
2018-03-27T23:04:45.934Z,3.3
2018-03-27T23:07:46.116Z,3
2018-03-27T23:10:45.978Z,3.2
2018-03-27T23:13:45.944Z,3
2018-03-27T23:16:45.954Z,2.9
2018-03-27T23:19:45.954Z,2.8
2018-03-27T23:22:45.963Z,3.1
2018-03-27T23:25:45.927Z,2.9
2018-03-27T23:28:45.920Z,2.8
2018-03-27T23:31:45.929Z,2.7
2018-03-27T23:34:45.949Z,2.8
2018-03-27T23:37:45.962Z,2.9
2018-03-27T23:40:45.989Z,2.8
2018-03-27T23:43:45.949Z,3.3
2018-03-27T23:46:45.943Z,3
2018-03-27T23:49:45.937Z,2.8
2018-03-27T23:52:46.008Z,2.7
2018-03-27T23:55:45.943Z,2.6
2018-03-27T23:58:45.942Z,2.9
